Time;durP1;ratioP1;P1;durP2;ratioP2;P2;SDS_P1;SDS_P2;PMS_P1;PMS_P2;Temp;Humidity;BMP_temperature;BMP_pressure;BME280_temperature;BME280_humidity;BME280_pressure;Samples;Min_cycle;Max_cycle;Signal;HPM_P1;HPM_P2
2022/05/26 00:01:18;;;;;;;5.90;4.25;;;;;;;;;;4975618;28;20046;-79
2022/05/26 00:03:45;;;;;;;7.10;4.97;;;;;;;;;;4971186;28;20027;-79
2022/05/26 00:06:12;;;;;;;7.50;5.05;;;;;;;;;;4957259;28;20082;-79
2022/05/26 00:08:38;;;;;;;9.00;5.80;;;;;;;;;;4973365;28;20050;-78
2022/05/26 00:11:13;;;;;;;7.65;5.20;;;;;;;;;;4974749;28;20449;-78
2022/05/26 00:13:39;;;;;;;7.53;4.70;;;;;;;;;;4973654;28;20125;-78
2022/05/26 00:16:06;;;;;;;6.15;4.47;;;;;;;;;;4973584;28;20547;-78
2022/05/26 00:18:32;;;;;;;6.57;4.82;;;;;;;;;;4960347;28;20035;-79
2022/05/26 00:20:58;;;;;;;7.18;4.90;;;;;;;;;;4963847;28;20061;-78
2022/05/26 00:23:24;;;;;;;6.85;4.88;;;;;;;;;;4962659;28;20374;-78
2022/05/26 00:25:50;;;;;;;7.03;5.38;;;;;;;;;;4961390;28;20034;-79
2022/05/26 00:28:16;;;;;;;8.45;4.72;;;;;;;;;;4973659;28;20047;-79
2022/05/26 00:30:42;;;;;;;7.43;5.38;;;;;;;;;;4966947;28;20090;-78
2022/05/26 00:33:09;;;;;;;8.13;5.32;;;;;;;;;;4961538;28;20031;-78
2022/05/26 00:35:36;;;;;;;7.38;5.35;;;;;;;;;;4957707;28;20035;-79
2022/05/26 00:38:06;;;;;;;7.55;5.30;;;;;;;;;;4973542;28;20533;-78
2022/05/26 00:40:32;;;;;;;7.63;5.75;;;;;;;;;;4973315;28;20061;-77
2022/05/26 00:42:59;;;;;;;8.75;5.90;;;;;;;;;;4964761;28;20077;-78
2022/05/26 00:45:28;;;;;;;8.52;5.57;;;;;;;;;;4969652;28;20030;-78
2022/05/26 00:47:55;;;;;;;8.38;5.85;;;;;;;;;;4968694;28;20027;-78
2022/05/26 00:50:23;;;;;;;8.27;6.07;;;;;;;;;;4971457;28;20023;-78
2022/05/26 00:53:12;;;;;;;7.10;5.30;;;;;;;;;;4972729;28;20054;-79
2022/05/26 00:55:41;;;;;;;8.10;5.90;;;;;;;;;;4972855;28;20624;-77
2022/05/26 00:58:15;;;;;;;7.07;5.40;;;;;;;;;;4973092;28;20487;-77
2022/05/26 01:00:42;;;;;;;6.97;5.20;;;;;;;;;;4972488;28;20266;-77
2022/05/26 01:03:16;;;;;;;7.63;5.30;;;;;;;;;;4972570;28;20023;-77
2022/05/26 01:05:43;;;;;;;6.32;4.78;;;;;;;;;;4972835;28;20037;-77
2022/05/26 01:08:13;;;;;;;7.22;5.20;;;;;;;;;;4973115;28;20057;-78
2022/05/26 01:10:39;;;;;;;5.80;4.15;;;;;;;;;;4972889;28;20482;-78
2022/05/26 01:13:05;;;;;;;6.13;4.38;;;;;;;;;;4972608;28;20031;-79
2022/05/26 01:15:35;;;;;;;6.15;4.40;;;;;;;;;;4972049;28;20398;-77
2022/05/26 01:18:12;;;;;;;6.00;4.40;;;;;;;;;;4966091;28;20019;-77
2022/05/26 01:20:43;;;;;;;7.30;4.30;;;;;;;;;;4953428;28;20039;-78
2022/05/26 01:23:24;;;;;;;6.43;4.82;;;;;;;;;;4959396;28;20027;-78
2022/05/26 01:26:08;;;;;;;6.00;4.28;;;;;;;;;;4972152;28;20397;-78
2022/05/26 01:28:37;;;;;;;5.60;4.13;;;;;;;;;;4971438;28;20053;-78
2022/05/26 01:31:13;;;;;;;6.28;4.32;;;;;;;;;;4957415;28;20035;-78
2022/05/26 01:33:44;;;;;;;6.13;4.20;;;;;;;;;;4958377;28;20031;-77
2022/05/26 01:36:25;;;;;;;6.03;3.50;;;;;;;;;;4969597;28;20027;-78
2022/05/26 01:39:05;;;;;;;5.43;3.92;;;;;;;;;;4958123;28;20023;-77
2022/05/26 01:41:48;;;;;;;6.85;4.40;;;;;;;;;;4972196;28;20528;-78
2022/05/26 01:44:33;;;;;;;5.85;4.30;;;;;;;;;;4971667;28;20074;-78
2022/05/26 01:47:02;;;;;;;7.07;4.93;;;;;;;;;;4970476;28;20042;-78
2022/05/26 01:49:30;;;;;;;7.57;4.78;;;;;;;;;;4970589;28;20492;-78
2022/05/26 01:52:06;;;;;;;7.07;4.43;;;;;;;;;;4963718;28;20035;-77
2022/05/26 01:54:32;;;;;;;6.20;4.05;;;;;;;;;;4971033;28;20035;-78
2022/05/26 01:56:58;;;;;;;6.43;4.20;;;;;;;;;;4961609;28;20165;-78
2022/05/26 01:59:27;;;;;;;7.25;4.45;;;;;;;;;;4968990;28;20394;-77
2022/05/26 02:01:59;;;;;;;5.80;4.00;;;;;;;;;;4955699;28;20474;-78
2022/05/26 02:04:27;;;;;;;7.22;4.40;;;;;;;;;;4952840;28;20066;-77
2022/05/26 02:06:55;;;;;;;6.65;4.05;;;;;;;;;;4952997;28;20082;-77
2022/05/26 02:09:24;;;;;;;6.90;4.13;;;;;;;;;;4970788;28;20078;-78
2022/05/26 02:12:11;;;;;;;6.72;4.45;;;;;;;;;;4971196;28;20026;-77
2022/05/26 02:14:40;;;;;;;7.03;4.10;;;;;;;;;;4971776;28;20417;-77
2022/05/26 02:17:20;;;;;;;6.82;4.20;;;;;;;;;;4970082;28;20034;-78
2022/05/26 02:19:50;;;;;;;5.70;4.10;;;;;;;;;;4963931;28;20039;-78
2022/05/26 02:22:24;;;;;;;5.95;3.72;;;;;;;;;;4953484;28;20027;-78
2022/05/26 02:24:56;;;;;;;5.82;3.80;;;;;;;;;;4967276;28;20031;-77
2022/05/26 02:27:23;;;;;;;5.57;3.97;;;;;;;;;;4970258;28;20039;-78
2022/05/26 02:29:52;;;;;;;4.95;3.10;;;;;;;;;;4970228;28;20027;-78
2022/05/26 02:32:23;;;;;;;5.72;3.45;;;;;;;;;;4971968;28;20030;-78
2022/05/26 02:34:50;;;;;;;5.18;3.50;;;;;;;;;;4961064;28;20110;-77
2022/05/26 02:37:17;;;;;;;5.53;3.70;;;;;;;;;;4956384;28;20026;-78
2022/05/26 02:39:43;;;;;;;6.13;3.92;;;;;;;;;;4970609;28;20027;-77
2022/05/26 02:42:10;;;;;;;5.20;3.40;;;;;;;;;;4972944;28;20481;-78
2022/05/26 02:44:36;;;;;;;5.40;3.47;;;;;;;;;;4975523;28;20046;-78
2022/05/26 02:47:20;;;;;;;6.50;4.10;;;;;;;;;;4974574;28;20042;-78
2022/05/26 02:49:49;;;;;;;5.70;3.67;;;;;;;;;;4963242;28;20039;-77
2022/05/26 02:52:21;;;;;;;5.20;3.40;;;;;;;;;;4956187;28;20053;-78
2022/05/26 02:54:53;;;;;;;6.45;3.20;;;;;;;;;;4955999;28;20031;-77
2022/05/26 02:57:25;;;;;;;5.40;3.20;;;;;;;;;;4968359;28;20033;-78
2022/05/26 03:00:30;;;;;;;4.65;2.63;;;;;;;;;;4974658;28;20481;-77
2022/05/26 03:02:56;;;;;;;5.80;2.38;;;;;;;;;;4971526;28;20129;-77
2022/05/26 03:05:22;;;;;;;4.38;2.50;;;;;;;;;;4972394;28;20580;-77
2022/05/26 03:07:50;;;;;;;4.45;2.33;;;;;;;;;;4968182;28;20046;-78
2022/05/26 03:10:18;;;;;;;4.22;2.38;;;;;;;;;;4953409;29;20028;-78
2022/05/26 03:12:44;;;;;;;4.47;2.42;;;;;;;;;;4958865;28;20026;-78
2022/05/26 03:15:11;;;;;;;4.03;2.20;;;;;;;;;;4953193;28;20039;-78
2022/05/26 03:17:37;;;;;;;4.60;2.63;;;;;;;;;;4971042;28;20078;-78
2022/05/26 03:20:04;;;;;;;4.55;2.65;;;;;;;;;;4972561;28;20042;-77
2022/05/26 03:22:30;;;;;;;5.47;2.88;;;;;;;;;;4972437;28;20640;-77
2022/05/26 03:24:56;;;;;;;4.10;2.53;;;;;;;;;;4972478;28;20197;-77
2022/05/26 03:27:22;;;;;;;5.45;2.53;;;;;;;;;;4966633;28;20040;-78
2022/05/26 03:29:48;;;;;;;4.43;2.58;;;;;;;;;;4958235;28;20121;-77
2022/05/26 03:32:14;;;;;;;5.22;2.65;;;;;;;;;;4972367;28;20034;-77
2022/05/26 03:42:55;;;;;;;4.30;2.50;;;;;;;;;;4964968;28;20038;-77
2022/05/26 03:45:22;;;;;;;4.13;2.22;;;;;;;;;;4961947;28;20035;-77
2022/05/26 03:47:49;;;;;;;3.90;1.92;;;;;;;;;;4967558;28;20031;-78
2022/05/26 03:50:15;;;;;;;4.20;2.38;;;;;;;;;;4969554;28;20554;-77
2022/05/26 03:52:41;;;;;;;4.38;2.42;;;;;;;;;;4963886;28;20041;-77
2022/05/26 03:55:07;;;;;;;4.40;2.20;;;;;;;;;;4958811;28;20106;-78
2022/05/26 03:57:33;;;;;;;4.25;2.38;;;;;;;;;;4969156;28;20031;-78
2022/05/26 03:59:59;;;;;;;4.05;2.20;;;;;;;;;;4972029;28;20046;-77
2022/05/26 04:02:26;;;;;;;5.10;2.10;;;;;;;;;;4958391;28;20113;-78
2022/05/26 04:04:52;;;;;;;5.18;2.13;;;;;;;;;;4973554;28;20484;-77
2022/05/26 04:07:18;;;;;;;4.90;2.30;;;;;;;;;;4974217;28;20532;-77
2022/05/26 04:09:44;;;;;;;4.20;2.15;;;;;;;;;;4972761;28;20548;-77
2022/05/26 04:12:11;;;;;;;4.85;2.05;;;;;;;;;;4969198;28;20081;-78
2022/05/26 04:14:37;;;;;;;4.47;2.20;;;;;;;;;;4973929;28;20027;-77
2022/05/26 04:17:04;;;;;;;4.85;2.47;;;;;;;;;;4966214;28;20039;-77
2022/05/26 04:19:30;;;;;;;3.75;2.10;;;;;;;;;;4954425;28;20053;-77
2022/05/26 04:24:41;;;;;;;4.43;2.13;;;;;;;;;;4974055;28;20122;-77
2022/05/26 04:27:07;;;;;;;4.15;1.90;;;;;;;;;;4972657;28;20078;-77
2022/05/26 04:29:35;;;;;;;4.35;1.88;;;;;;;;;;4973000;28;20026;-77
2022/05/26 04:32:01;;;;;;;4.65;1.63;;;;;;;;;;4972923;28;20503;-77
2022/05/26 04:34:27;;;;;;;4.85;1.60;;;;;;;;;;4972409;28;20095;-77
2022/05/26 04:36:53;;;;;;;3.72;1.90;;;;;;;;;;4974241;28;20035;-77
2022/05/26 04:39:20;;;;;;;3.50;1.65;;;;;;;;;;4982084;28;20049;-77
2022/05/26 04:41:46;;;;;;;3.40;1.80;;;;;;;;;;4973094;28;20731;-77
2022/05/26 04:44:13;;;;;;;3.67;1.60;;;;;;;;;;4968090;28;20053;-77
2022/05/26 04:46:39;;;;;;;4.00;1.65;;;;;;;;;;4958546;28;20045;-77
2022/05/26 04:49:05;;;;;;;3.25;1.48;;;;;;;;;;4969449;28;20085;-77
2022/05/26 04:51:34;;;;;;;3.92;1.60;;;;;;;;;;4972883;28;20125;-78
2022/05/26 04:54:00;;;;;;;3.00;1.20;;;;;;;;;;4971009;28;20027;-78
2022/05/26 04:56:26;;;;;;;4.32;1.63;;;;;;;;;;4971333;28;20114;-77
2022/05/26 04:58:52;;;;;;;3.20;1.35;;;;;;;;;;4967635;28;20110;-77
2022/05/26 05:01:19;;;;;;;4.40;1.90;;;;;;;;;;4969090;28;20118;-76
2022/05/26 05:03:45;;;;;;;4.57;1.42;;;;;;;;;;4957884;28;20031;-77
2022/05/26 05:06:11;;;;;;;3.30;1.35;;;;;;;;;;4958971;28;20063;-76
2022/05/26 05:08:38;;;;;;;3.25;1.35;;;;;;;;;;4965813;28;20081;-76
2022/05/26 05:11:05;;;;;;;2.05;1.10;;;;;;;;;;4974117;28;20473;-77
2022/05/26 05:13:32;;;;;;;2.58;1.02;;;;;;;;;;4972145;28;20023;-76
2022/05/26 05:16:01;;;;;;;3.13;1.20;;;;;;;;;;4962417;28;20054;-77
2022/05/26 05:18:27;;;;;;;3.05;1.30;;;;;;;;;;4970215;28;20027;-77
2022/05/26 05:20:54;;;;;;;2.83;1.08;;;;;;;;;;4972053;28;20033;-76
2022/05/26 05:23:20;;;;;;;2.38;1.10;;;;;;;;;;4972469;28;20027;-76
2022/05/26 05:25:48;;;;;;;2.55;1.05;;;;;;;;;;4971710;28;20046;-77
2022/05/26 05:28:21;;;;;;;2.53;1.10;;;;;;;;;;4966717;28;20113;-77
2022/05/26 05:30:47;;;;;;;;;;;;;;;;;;4969364;28;20396;-77
2022/05/26 05:33:13;;;;;;;2.40;1.20;;;;;;;;;;4971578;28;19913;-77
2022/05/26 05:35:43;;;;;;;2.20;0.90;;;;;;;;;;4972629;28;20022;-77
2022/05/26 05:38:09;;;;;;;2.15;0.90;;;;;;;;;;4972608;28;20033;-77
2022/05/26 05:40:35;;;;;;;2.08;0.90;;;;;;;;;;4972455;28;20078;-78
2022/05/26 05:43:01;;;;;;;2.88;1.08;;;;;;;;;;4971783;28;20038;-77
2022/05/26 05:45:28;;;;;;;2.90;1.20;;;;;;;;;;4971277;28;20094;-76
2022/05/26 05:47:54;;;;;;;1.95;0.90;;;;;;;;;;4972475;28;20026;-77
2022/05/26 05:50:20;;;;;;;2.00;1.10;;;;;;;;;;4972295;28;20034;-77
2022/05/26 05:52:46;;;;;;;2.05;0.80;;;;;;;;;;4972279;28;20027;-77
2022/05/26 05:55:12;;;;;;;2.20;1.00;;;;;;;;;;4972113;28;20031;-77
2022/05/26 05:57:38;;;;;;;3.25;0.98;;;;;;;;;;4971881;28;20485;-76
2022/05/26 06:00:05;;;;;;;2.58;0.80;;;;;;;;;;4972340;28;20027;-75
2022/05/26 06:02:31;;;;;;;2.78;1.00;;;;;;;;;;4972065;28;20023;-76
2022/05/26 06:04:57;;;;;;;2.80;0.90;;;;;;;;;;4972021;28;20023;-77
2022/05/26 06:07:23;;;;;;;1.48;0.82;;;;;;;;;;4972197;28;20493;-77
2022/05/26 06:09:50;;;;;;;3.17;0.80;;;;;;;;;;4972300;28;20065;-76
2022/05/26 06:12:17;;;;;;;2.47;0.90;;;;;;;;;;4971954;28;20034;-77
2022/05/26 06:14:43;;;;;;;2.28;1.00;;;;;;;;;;4971982;28;20117;-77
2022/05/26 06:17:10;;;;;;;3.00;1.13;;;;;;;;;;4973780;28;20042;-77
2022/05/26 06:19:36;;;;;;;2.08;0.90;;;;;;;;;;4977631;28;20026;-78
2022/05/26 06:22:07;;;;;;;1.30;0.70;;;;;;;;;;4974803;28;20034;-78
2022/05/26 06:24:33;;;;;;;2.75;1.00;;;;;;;;;;4977686;28;20082;-78
2022/05/26 06:26:59;;;;;;;2.17;0.90;;;;;;;;;;4976786;28;20043;-79
2022/05/26 06:37:39;;;;;;;2.53;1.10;;;;;;;;;;4975685;28;20177;-75
2022/05/26 06:40:06;;;;;;;2.92;1.00;;;;;;;;;;4974986;28;20481;-76
2022/05/26 06:42:32;;;;;;;3.05;1.00;;;;;;;;;;4974634;28;20153;-76
2022/05/26 06:44:58;;;;;;;1.85;0.90;;;;;;;;;;4975110;28;20418;-77
2022/05/26 06:47:26;;;;;;;2.22;0.90;;;;;;;;;;4975387;28;20405;-76
2022/05/26 06:49:52;;;;;;;3.72;1.40;;;;;;;;;;4974573;28;20042;-77
2022/05/26 06:52:19;;;;;;;4.22;1.20;;;;;;;;;;4975520;28;20397;-76
2022/05/26 06:54:47;;;;;;;2.97;1.35;;;;;;;;;;4973099;28;20475;-76
2022/05/26 06:57:15;;;;;;;2.75;1.20;;;;;;;;;;4956751;28;20031;-77
2022/05/26 06:59:41;;;;;;;2.53;1.08;;;;;;;;;;4974552;28;20023;-76
2022/05/26 07:02:09;;;;;;;3.90;1.00;;;;;;;;;;4974778;28;20437;-78
2022/05/26 07:04:35;;;;;;;3.00;1.40;;;;;;;;;;4973886;28;20027;-76
2022/05/26 07:07:01;;;;;;;2.47;1.05;;;;;;;;;;4973919;28;20511;-77
2022/05/26 07:09:28;;;;;;;3.03;1.50;;;;;;;;;;4974426;28;20073;-76
2022/05/26 07:11:54;;;;;;;3.03;1.20;;;;;;;;;;4975423;28;20122;-76
2022/05/26 07:14:20;;;;;;;2.85;1.08;;;;;;;;;;4974900;28;20611;-77
2022/05/26 07:16:47;;;;;;;2.33;1.00;;;;;;;;;;4973921;28;20069;-77
2022/05/26 07:19:14;;;;;;;4.10;1.50;;;;;;;;;;4962504;28;20027;-76
2022/05/26 07:21:43;;;;;;;2.40;1.00;;;;;;;;;;4956015;28;20397;-79
2022/05/26 07:24:09;;;;;;;2.63;0.82;;;;;;;;;;4974544;28;20033;-76
2022/05/26 07:26:35;;;;;;;4.18;1.15;;;;;;;;;;4974767;28;20025;-76
2022/05/26 07:29:01;;;;;;;2.75;1.00;;;;;;;;;;4973089;28;20121;-78
2022/05/26 07:31:27;;;;;;;3.97;1.45;;;;;;;;;;4974869;28;20122;-77
2022/05/26 07:33:54;;;;;;;2.08;1.05;;;;;;;;;;4974055;28;20038;-78
2022/05/26 07:41:53;;;;;;;3.95;1.60;;;;;;;;;;4958423;28;20564;-77
2022/05/26 07:44:19;;;;;;;3.33;1.30;;;;;;;;;;4955233;28;20130;-76
2022/05/26 07:46:45;;;;;;;3.17;1.25;;;;;;;;;;4971228;28;20034;-77
2022/05/26 07:49:12;;;;;;;2.67;1.20;;;;;;;;;;4973717;28;20034;-75
2022/05/26 07:51:38;;;;;;;3.10;1.30;;;;;;;;;;4973277;28;20085;-75
2022/05/26 07:54:04;;;;;;;3.97;1.23;;;;;;;;;;4972977;28;20034;-76
2022/05/26 07:56:36;;;;;;;3.40;1.23;;;;;;;;;;4973911;28;20544;-76
2022/05/26 07:59:02;;;;;;;;;;;;;;;;;;4974367;28;20195;-76
2022/05/26 08:01:28;;;;;;;2.58;1.20;;;;;;;;;;4974296;28;20465;-76
2022/05/26 08:03:55;;;;;;;5.20;2.33;;;;;;;;;;4973691;28;20053;-76
2022/05/26 08:06:21;;;;;;;4.15;1.30;;;;;;;;;;4973585;28;20500;-76
2022/05/26 08:08:48;;;;;;;3.70;1.70;;;;;;;;;;4973883;28;20062;-77
2022/05/26 08:11:14;;;;;;;2.20;1.10;;;;;;;;;;4973657;28;20022;-76
2022/05/26 08:13:40;;;;;;;4.55;1.20;;;;;;;;;;4974497;28;20083;-76
2022/05/26 08:16:06;;;;;;;2.72;1.10;;;;;;;;;;4965447;28;20095;-76
2022/05/26 08:18:33;;;;;;;2.33;1.10;;;;;;;;;;4954795;28;20070;-76
2022/05/26 08:21:06;;;;;;;3.30;1.10;;;;;;;;;;4955601;28;20023;-76
2022/05/26 08:23:32;;;;;;;3.35;1.23;;;;;;;;;;4973621;28;20595;-76
2022/05/26 08:25:58;;;;;;;2.72;1.40;;;;;;;;;;4973901;28;20038;-76
2022/05/26 08:28:24;;;;;;;3.22;1.58;;;;;;;;;;4967187;28;20042;-76
2022/05/26 08:30:50;;;;;;;3.80;1.35;;;;;;;;;;4954509;28;20035;-77
2022/05/26 08:33:16;;;;;;;2.50;1.27;;;;;;;;;;4953187;28;20059;-75
2022/05/26 08:35:42;;;;;;;2.85;1.10;;;;;;;;;;4954405;28;20054;-77
2022/05/26 08:38:08;;;;;;;4.75;1.50;;;;;;;;;;4960138;28;20079;-77
2022/05/26 08:40:39;;;;;;;2.42;1.00;;;;;;;;;;4972442;28;20436;-78
2022/05/26 08:43:05;;;;;;;4.60;1.23;;;;;;;;;;4973521;28;20117;-76
2022/05/26 08:45:37;;;;;;;3.30;1.25;;;;;;;;;;4973667;28;20038;-77
2022/05/26 08:48:05;;;;;;;2.85;1.20;;;;;;;;;;4971609;28;20031;-76
2022/05/26 08:50:34;;;;;;;2.67;1.30;;;;;;;;;;4973048;28;20081;-77
2022/05/26 08:53:10;;;;;;;2.67;1.10;;;;;;;;;;4972904;28;20450;-76
2022/05/26 08:55:42;;;;;;;3.03;1.23;;;;;;;;;;4972375;28;20019;-77
2022/05/26 08:58:11;;;;;;;3.70;1.30;;;;;;;;;;4972627;28;20493;-76
2022/05/26 09:00:39;;;;;;;3.63;1.20;;;;;;;;;;4972860;28;20041;-76
2022/05/26 09:03:24;;;;;;;2.78;1.10;;;;;;;;;;4972786;28;20026;-78
2022/05/26 09:05:54;;;;;;;4.00;1.48;;;;;;;;;;4953778;28;20083;-77
2022/05/26 09:14:01;;;;;;;3.15;1.30;;;;;;;;;;4965347;28;20040;-76
2022/05/26 09:16:32;;;;;;;2.95;1.30;;;;;;;;;;4972454;28;20066;-77
2022/05/26 09:19:07;;;;;;;3.28;1.13;;;;;;;;;;4972118;28;20453;-76
2022/05/26 09:21:33;;;;;;;2.95;1.10;;;;;;;;;;4972075;28;20034;-77
2022/05/26 09:24:19;;;;;;;3.67;1.27;;;;;;;;;;4973451;28;20027;-77
2022/05/26 09:27:00;;;;;;;3.03;1.40;;;;;;;;;;4972617;28;20031;-76
2022/05/26 09:29:28;;;;;;;3.45;1.33;;;;;;;;;;4972579;28;20379;-77
2022/05/26 09:31:54;;;;;;;2.95;1.40;;;;;;;;;;4970627;28;20049;-78
2022/05/26 09:34:22;;;;;;;2.95;1.42;;;;;;;;;;4974045;28;20047;-76
2022/05/26 09:36:53;;;;;;;4.93;1.75;;;;;;;;;;4970356;28;20363;-78
2022/05/26 09:39:24;;;;;;;3.73;1.70;;;;;;;;;;4973536;28;20031;-77
2022/05/26 09:41:52;;;;;;;3.15;1.40;;;;;;;;;;4973643;28;20771;-79
2022/05/26 09:44:28;;;;;;;4.57;1.77;;;;;;;;;;4976107;28;20033;-78
2022/05/26 09:46:55;;;;;;;6.05;2.20;;;;;;;;;;4975687;28;20043;-79
2022/05/26 09:49:23;;;;;;;3.80;1.80;;;;;;;;;;4973659;28;20093;-78
2022/05/26 09:51:49;;;;;;;4.25;2.05;;;;;;;;;;4968155;28;20031;-79
2022/05/26 09:54:25;;;;;;;3.58;1.83;;;;;;;;;;4972171;28;20499;-77
2022/05/26 09:56:51;;;;;;;3.70;1.88;;;;;;;;;;4955051;28;20027;-77
2022/05/26 09:59:27;;;;;;;3.90;2.10;;;;;;;;;;4961989;28;20018;-79
2022/05/26 10:01:59;;;;;;;4.60;1.88;;;;;;;;;;4972545;28;20025;-78
2022/05/26 10:04:25;;;;;;;;;;;;;;;;;;4974216;28;20019;-77
2022/05/26 10:06:57;;;;;;;4.00;2.03;;;;;;;;;;4967638;28;19925;-78
2022/05/26 10:09:34;;;;;;;3.28;1.70;;;;;;;;;;4966649;28;20070;-79
2022/05/26 10:12:04;;;;;;;4.93;2.13;;;;;;;;;;4968996;28;20053;-78
2022/05/26 10:14:33;;;;;;;3.70;1.80;;;;;;;;;;4967338;28;20031;-77
2022/05/26 10:17:02;;;;;;;4.25;2.03;;;;;;;;;;4962448;28;20035;-77
2022/05/26 10:19:57;;;;;;;3.97;1.80;;;;;;;;;;4973165;28;20034;-78
2022/05/26 10:22:36;;;;;;;4.10;1.80;;;;;;;;;;4975361;28;20031;-77
2022/05/26 10:25:21;;;;;;;3.92;1.90;;;;;;;;;;4971891;28;20042;-77
2022/05/26 10:27:58;;;;;;;3.85;1.70;;;;;;;;;;4972182;28;20054;-78
2022/05/26 10:30:44;;;;;;;3.50;1.60;;;;;;;;;;4972264;28;20038;-77
2022/05/26 10:33:25;;;;;;;3.58;1.80;;;;;;;;;;4972822;28;20042;-77
2022/05/26 10:35:57;;;;;;;4.43;2.28;;;;;;;;;;4971248;28;20031;-78
2022/05/26 10:38:30;;;;;;;4.57;1.80;;;;;;;;;;4972940;28;20041;-79
2022/05/26 10:41:16;;;;;;;3.72;1.63;;;;;;;;;;4954718;28;20019;-78
2022/05/26 10:43:52;;;;;;;5.15;1.70;;;;;;;;;;4966425;28;20118;-78
2022/05/26 10:46:19;;;;;;;3.60;1.60;;;;;;;;;;4973131;28;20051;-78
2022/05/26 10:48:47;;;;;;;3.70;1.60;;;;;;;;;;4973667;28;20030;-78
2022/05/26 10:51:15;;;;;;;4.38;1.60;;;;;;;;;;4972450;28;20477;-78
2022/05/26 10:53:53;;;;;;;3.22;1.55;;;;;;;;;;4973551;28;20023;-77
2022/05/26 10:56:39;;;;;;;3.90;1.38;;;;;;;;;;4971843;28;20122;-77
2022/05/26 10:59:11;;;;;;;4.63;1.55;;;;;;;;;;4964518;28;20485;-78
2022/05/26 11:01:41;;;;;;;6.07;1.50;;;;;;;;;;4972498;28;20045;-76
2022/05/26 11:04:30;;;;;;;3.90;1.60;;;;;;;;;;4969777;28;20059;-77
2022/05/26 11:06:59;;;;;;;4.38;1.40;;;;;;;;;;4973900;28;20054;-79
2022/05/26 11:09:30;;;;;;;3.13;1.35;;;;;;;;;;4970501;28;20031;-77
2022/05/26 11:11:59;;;;;;;4.18;1.50;;;;;;;;;;4967117;28;20027;-77
2022/05/26 11:17:34;;;;;;;3.60;1.33;;;;;;;;;;4975793;28;20536;-78
2022/05/26 11:20:01;;;;;;;3.30;1.40;;;;;;;;;;4976415;28;20445;-78
2022/05/26 11:22:27;;;;;;;3.85;1.52;;;;;;;;;;4967522;28;20457;-79
2022/05/26 11:24:54;;;;;;;4.10;1.58;;;;;;;;;;4975383;28;20513;-77
2022/05/26 11:27:24;;;;;;;3.10;1.40;;;;;;;;;;4971977;28;20043;-79
2022/05/26 11:29:52;;;;;;;4.20;1.70;;;;;;;;;;4958401;28;20409;-79
2022/05/26 11:38:13;;;;;;;3.70;1.40;;;;;;;;;;4973690;28;20070;-79
2022/05/26 11:40:59;;;;;;;3.40;1.63;;;;;;;;;;4959310;28;20031;-77
2022/05/26 11:43:26;;;;;;;2.78;1.40;;;;;;;;;;4972944;28;20541;-81
2022/05/26 11:45:53;;;;;;;5.03;1.70;;;;;;;;;;4957219;28;20070;-78
2022/05/26 11:48:31;;;;;;;4.18;1.60;;;;;;;;;;4960802;28;20437;-78
2022/05/26 11:51:02;;;;;;;3.38;1.48;;;;;;;;;;4974434;28;20039;-78
2022/05/26 11:53:28;;;;;;;3.03;1.48;;;;;;;;;;4976535;28;20019;-78
2022/05/26 11:55:58;;;;;;;4.82;1.70;;;;;;;;;;4977781;28;20433;-77
2022/05/26 11:58:28;;;;;;;4.85;1.40;;;;;;;;;;4977730;28;20043;-77
2022/05/26 12:01:13;;;;;;;3.42;1.48;;;;;;;;;;4972648;28;20058;-78
2022/05/26 12:03:54;;;;;;;3.40;1.35;;;;;;;;;;4972275;28;20125;-78
2022/05/26 12:06:40;;;;;;;3.72;1.70;;;;;;;;;;4964124;28;20035;-77
2022/05/26 12:09:13;;;;;;;3.28;1.70;;;;;;;;;;4963900;28;20030;-78
2022/05/26 12:11:58;;;;;;;5.13;1.40;;;;;;;;;;4969140;28;20038;-79
2022/05/26 12:14:26;;;;;;;3.22;1.40;;;;;;;;;;4960697;28;20098;-77
2022/05/26 12:16:52;;;;;;;3.28;1.50;;;;;;;;;;4964850;28;20426;-77
2022/05/26 12:19:40;;;;;;;3.42;1.70;;;;;;;;;;4967539;28;20389;-78
2022/05/26 12:22:33;;;;;;;4.30;1.30;;;;;;;;;;4964036;28;20107;-79
2022/05/26 12:24:59;;;;;;;3.00;1.50;;;;;;;;;;4967210;28;20573;-77
2022/05/26 12:27:44;;;;;;;3.38;1.52;;;;;;;;;;4968391;28;20122;-78
2022/05/26 12:30:11;;;;;;;3.35;1.45;;;;;;;;;;4965066;28;20038;-77
2022/05/26 12:32:38;;;;;;;5.25;1.60;;;;;;;;;;4955330;28;20055;-78
2022/05/26 12:35:23;;;;;;;3.30;1.48;;;;;;;;;;4955755;28;20118;-78
2022/05/26 12:37:56;;;;;;;4.22;1.70;;;;;;;;;;4972063;28;20396;-77
2022/05/26 12:40:22;;;;;;;3.13;1.48;;;;;;;;;;4975136;28;20461;-79
2022/05/26 12:43:15;;;;;;;4.55;1.58;;;;;;;;;;4976960;28;20030;-77
2022/05/26 12:45:48;;;;;;;5.75;1.60;;;;;;;;;;4975666;28;20030;-77
2022/05/26 12:48:33;;;;;;;3.00;1.60;;;;;;;;;;4959473;28;20037;-79
2022/05/26 12:51:04;;;;;;;3.08;1.60;;;;;;;;;;4966820;28;20519;-78
2022/05/26 12:53:33;;;;;;;3.67;1.60;;;;;;;;;;4972710;28;20477;-79
2022/05/26 12:56:05;;;;;;;3.70;1.50;;;;;;;;;;4958557;28;20035;-79
2022/05/26 12:58:31;;;;;;;;;;;;;;;;;;4973922;28;20035;-78
2022/05/26 13:00:57;;;;;;;4.55;1.48;;;;;;;;;;4975798;28;19910;-78
2022/05/26 13:03:26;;;;;;;4.05;1.60;;;;;;;;;;4968931;28;20023;-78
2022/05/26 13:06:07;;;;;;;3.45;1.50;;;;;;;;;;4977837;28;20030;-78
2022/05/26 13:08:41;;;;;;;4.43;1.67;;;;;;;;;;4967789;28;20083;-78
2022/05/26 13:11:11;;;;;;;3.50;1.70;;;;;;;;;;4959975;28;20035;-78
2022/05/26 13:13:42;;;;;;;4.13;1.80;;;;;;;;;;4965703;28;20038;-78
2022/05/26 13:16:21;;;;;;;3.90;1.60;;;;;;;;;;4966492;28;20034;-77
2022/05/26 13:18:47;;;;;;;3.53;1.50;;;;;;;;;;4975368;28;20014;-78
2022/05/26 13:21:32;;;;;;;3.83;1.83;;;;;;;;;;4973075;28;20401;-78
2022/05/26 13:23:58;;;;;;;3.97;1.50;;;;;;;;;;4972951;28;20019;-78
2022/05/26 13:26:24;;;;;;;3.10;1.40;;;;;;;;;;4958254;28;20409;-78
2022/05/26 13:28:53;;;;;;;3.60;1.50;;;;;;;;;;4955715;28;20099;-77
2022/05/26 13:34:05;;;;;;;3.10;1.50;;;;;;;;;;4961611;28;20038;-77
2022/05/26 13:36:31;;;;;;;4.35;1.42;;;;;;;;;;4971266;28;20245;-78
2022/05/26 13:39:04;;;;;;;5.68;1.50;;;;;;;;;;4974163;28;20037;-78
2022/05/26 13:41:30;;;;;;;3.95;1.55;;;;;;;;;;4964052;28;20023;-77
2022/05/26 13:43:56;;;;;;;4.78;1.48;;;;;;;;;;4969985;28;20107;-77
2022/05/26 13:46:40;;;;;;;3.83;1.45;;;;;;;;;;4953836;28;20062;-79
2022/05/26 13:49:18;;;;;;;2.95;1.42;;;;;;;;;;4956122;28;20406;-78
2022/05/26 13:51:45;;;;;;;3.85;1.50;;;;;;;;;;4956811;28;20504;-78
2022/05/26 13:54:14;;;;;;;4.78;1.80;;;;;;;;;;4973714;28;20026;-79
2022/05/26 13:56:44;;;;;;;3.13;1.58;;;;;;;;;;4972572;28;20062;-79
2022/05/26 13:59:12;;;;;;;4.72;1.60;;;;;;;;;;4971087;28;20031;-79
2022/05/26 14:02:04;;;;;;;6.50;1.52;;;;;;;;;;4975247;28;21350;-77
2022/05/26 14:04:32;;;;;;;3.17;1.60;;;;;;;;;;4972928;28;21569;-77
2022/05/26 14:06:58;;;;;;;4.05;1.52;;;;;;;;;;4965726;28;20073;-78
2022/05/26 14:09:25;;;;;;;3.20;1.52;;;;;;;;;;4980879;28;20034;-78
2022/05/26 14:12:03;;;;;;;3.47;1.50;;;;;;;;;;4976974;28;20031;-77
2022/05/26 14:14:29;;;;;;;3.17;1.35;;;;;;;;;;4961308;28;20031;-77
2022/05/26 14:16:56;;;;;;;3.00;1.48;;;;;;;;;;4955274;28;20086;-78
2022/05/26 14:19:25;;;;;;;4.25;1.52;;;;;;;;;;4955721;28;20027;-77
2022/05/26 14:21:51;;;;;;;4.57;1.60;;;;;;;;;;4971176;28;20031;-77
2022/05/26 14:24:20;;;;;;;3.70;1.52;;;;;;;;;;4971606;28;20388;-77
2022/05/26 14:27:04;;;;;;;3.45;1.30;;;;;;;;;;4973328;28;20057;-77
2022/05/26 14:29:30;;;;;;;3.15;1.30;;;;;;;;;;4957529;28;20035;-78
2022/05/26 14:31:58;;;;;;;4.72;1.80;;;;;;;;;;4970561;28;20389;-77
2022/05/26 14:34:23;;;;;;;4.30;1.35;;;;;;;;;;4972460;28;20035;-78
2022/05/26 14:36:50;;;;;;;3.08;1.30;;;;;;;;;;4972209;28;20085;-77
2022/05/26 14:39:16;;;;;;;3.40;1.40;;;;;;;;;;4974279;28;20029;-77
2022/05/26 14:41:42;;;;;;;4.72;1.70;;;;;;;;;;4975451;28;20022;-77
2022/05/26 14:44:10;;;;;;;4.22;1.92;;;;;;;;;;4975591;28;20023;-77
2022/05/26 14:46:36;;;;;;;3.22;1.40;;;;;;;;;;4975344;28;20497;-77
2022/05/26 14:49:03;;;;;;;3.70;1.50;;;;;;;;;;4975150;28;20088;-77
2022/05/26 14:51:31;;;;;;;3.30;1.85;;;;;;;;;;4975697;28;20106;-77
2022/05/26 14:56:43;;;;;;;4.45;1.20;;;;;;;;;;4974391;28;20089;-77
2022/05/26 14:59:10;;;;;;;4.22;1.40;;;;;;;;;;4976211;28;20433;-78
2022/05/26 15:01:36;;;;;;;2.97;1.35;;;;;;;;;;4975731;28;20030;-77
2022/05/26 15:04:02;;;;;;;3.55;1.40;;;;;;;;;;4976285;28;20023;-77
2022/05/26 15:06:38;;;;;;;3.92;1.40;;;;;;;;;;4976020;28;20049;-78
2022/05/26 15:09:04;;;;;;;3.75;1.40;;;;;;;;;;4975503;28;20034;-77
2022/05/26 15:11:30;;;;;;;7.65;4.95;;;;;;;;;;4975559;28;20050;-77
2022/05/26 15:13:56;;;;;;;4.22;1.70;;;;;;;;;;4972374;28;20031;-77
2022/05/26 15:16:24;;;;;;;3.72;1.40;;;;;;;;;;4969913;28;20015;-78
2022/05/26 15:18:51;;;;;;;3.35;1.30;;;;;;;;;;4966014;28;20106;-78
2022/05/26 15:21:17;;;;;;;3.35;1.40;;;;;;;;;;4962176;28;20073;-77
2022/05/26 15:23:43;;;;;;;3.45;1.30;;;;;;;;;;4975267;28;20109;-77
2022/05/26 15:26:11;;;;;;;3.60;1.70;;;;;;;;;;4973274;28;20118;-77
2022/05/26 15:28:42;;;;;;;3.10;1.30;;;;;;;;;;4968156;28;20055;-77
2022/05/26 15:31:08;;;;;;;3.72;1.60;;;;;;;;;;4964154;28;21251;-77
2022/05/26 15:33:35;;;;;;;5.13;1.60;;;;;;;;;;4967465;28;20023;-77
2022/05/26 15:36:02;;;;;;;4.07;1.40;;;;;;;;;;4971330;28;20023;-77
2022/05/26 15:38:31;;;;;;;4.10;1.70;;;;;;;;;;4971835;28;20374;-77
2022/05/26 15:40:57;;;;;;;3.70;1.40;;;;;;;;;;4970614;28;20034;-77
2022/05/26 15:43:23;;;;;;;3.05;1.40;;;;;;;;;;4962717;28;20034;-77